Fishing Creek — WDJ3477 — position and weather

sailwx.info

Track history (hours):
 
Tides and Currents Weather Stations Pressure Air Temp Water Temp Dewpoint Dewpoint Depression Visibility Wind Speed Wind Dir Waves Ship Positions

Fishing Creek

Owner: Vane Line Bunkering, Inc., Philadelphia, PA. More information available from US FCC via Universal Licensing System and Coast Guard Vessel Documentation Center.

Last reported at 2017-Oct-18 16:30 UTC. Time now 2017-Oct-18 16:41 UTC.
Position N 39°59' W 075°05'.

Length 31 m; draft 13 m.

Type: Tug. MMSI: 368173000.

Date/timePositionNaut miles runAvg speedWind from/ knotsBaromVisibWave heightAir tempDewpointWater temp
2017-Oct-18 16:30N 39°59' W 075°05'0 0.0
2017-Oct-18 16:00N 39°59' W 075°05'0 0.0
2017-Oct-18 15:30N 39°59' W 075°05'0 0.0
2017-Oct-18 15:00N 39°59' W 075°05'0 0.0
2017-Oct-18 14:01N 39°59' W 075°05'0 0.0
2017-Oct-18 13:30N 39°59' W 075°05'0 0.0
2017-Oct-18 13:01N 39°59' W 075°05'0 0.0
2017-Oct-18 12:31N 39°59' W 075°05'2 4.5
2017-Oct-18 12:00N 39°58' W 075°08'4 7.4
2017-Oct-18 11:31N 39°54' W 075°08'3 6.1
2017-Oct-18 11:00N 39°53' W 075°12'0 0.8
2017-Oct-18 10:31N 39°53' W 075°12'1 1.2
2017-Oct-18 10:00N 39°54' W 075°12'0 0.0
2017-Oct-18 09:31N 39°54' W 075°12'0 0.0
2017-Oct-18 09:00N 39°54' W 075°12'0 0.0
2017-Oct-18 08:30N 39°54' W 075°12'0 0.0
2017-Oct-18 08:01N 39°54' W 075°12'0 0.0
2017-Oct-18 07:30N 39°54' W 075°12'0 0.0
2017-Oct-18 07:01N 39°54' W 075°12'0 0.0
2017-Oct-18 06:30N 39°54' W 075°12'0 0.0
2017-Oct-18 06:01N 39°54' W 075°12'0 0.0
2017-Oct-18 05:30N 39°54' W 075°12'0 0.0
2017-Oct-18 05:01N 39°54' W 075°12'0 0.2
2017-Oct-18 04:31N 39°54' W 075°12'1 1.3
2017-Oct-18 04:00N 39°53' W 075°12'1 1.2
2017-Oct-18 03:31N 39°54' W 075°12'0 0.0
2017-Oct-18 03:00N 39°54' W 075°12'0 0.0
2017-Oct-18 02:30N 39°54' W 075°12'0 0.0
2017-Oct-18 02:00N 39°54' W 075°12'0 0.0
2017-Oct-18 01:30N 39°54' W 075°12'1 1.2
2017-Oct-18 01:00N 39°53' W 075°12'2 4.4
2017-Oct-18 00:30N 39°53' W 075°09'5 9.1
2017-Oct-18 00:00N 39°57' W 075°08'3 6.3
2017-Oct-17 23:30N 39°59' W 075°04'0 0.1
2017-Oct-17 23:00N 39°59' W 075°04'1 1.8
2017-Oct-17 22:31N 39°59' W 075°05'0 0.0
2017-Oct-17 22:01N 39°59' W 075°05'0 0.0
2017-Oct-17 21:30N 39°59' W 075°05'0 0.0
2017-Oct-17 21:00N 39°59' W 075°05'0 0.0
2017-Oct-17 20:31N 39°59' W 075°05'0 0.0
2017-Oct-17 20:01N 39°59' W 075°05'0 0.0
2017-Oct-17 19:31N 39°59' W 075°05'0 0.0
2017-Oct-17 19:01N 39°59' W 075°05'0 0.0
2017-Oct-17 18:30N 39°59' W 075°05'0 0.0
2017-Oct-17 18:00N 39°59' W 075°05'0 0.0
2017-Oct-17 17:31N 39°59' W 075°05'0 0.0
2017-Oct-17 17:01N 39°59' W 075°05'0 0.0
2017-Oct-17 16:30N 39°59' W 075°05'0 0.0
2017-Oct-17 16:00N 39°59' W 075°05'0 0.0
2017-Oct-17 15:31N 39°59' W 075°05'0 0.0
2017-Oct-17 15:00N 39°59' W 075°05'0 0.0
2017-Oct-17 14:31N 39°59' W 075°05'1 1.8
2017-Oct-17 14:00N 39°59' W 075°04'1 1.6
2017-Oct-17 13:30N 39°59' W 075°05'3 6.3
2017-Oct-17 13:00N 39°56' W 075°08'4 7.2
2017-Oct-17 12:31N 39°53' W 075°09'2 4.1
2017-Oct-17 12:00N 39°53' W 075°12'1 2.1
2017-Oct-17 11:31N 39°53' W 075°10'2 4.8
2017-Oct-17 11:00N 39°54' W 075°08'0 0.0
2017-Oct-17 10:30N 39°54' W 075°08'1 1.1
2017-Oct-17 10:01N 39°54' W 075°08'0 0.8
2017-Oct-17 09:31N 39°53' W 075°08'3 6.0
2017-Oct-17 09:00N 39°54' W 075°12'0 0.0
2017-Oct-17 08:30N 39°54' W 075°12'1 2.5
2017-Oct-17 08:01N 39°53' W 075°11'3 5.8
2017-Oct-17 07:31N 39°51' W 075°14'4 7.0
2017-Oct-17 07:01N 39°51' W 075°19'3 6.8
2017-Oct-17 06:31N 39°49' W 075°23'4 7.4
2017-Oct-17 06:00N 39°47' W 075°27'4 7.6
2017-Oct-17 05:31N 39°44' W 075°30'4 7.7
2017-Oct-17 05:01N 39°41' W 075°31'4 7.9
2017-Oct-17 04:30N 39°38' W 075°35'4 7.8
2017-Oct-17 04:00N 39°34' W 075°33'3 7.0
2017-Oct-17 03:30N 39°33' W 075°37'3 6.6
2017-Oct-17 03:00N 39°33' W 075°42'3 6.7
2017-Oct-17 02:30N 39°32' W 075°46'3 6.6
2017-Oct-17 02:00N 39°32' W 075°50'4 7.1
2017-Oct-17 01:30N 39°30' W 075°54'4 8.4
2017-Oct-17 01:01N 39°28' W 075°58'4 8.8
2017-Oct-17 00:30N 39°24' W 076°02'5 9.1
2017-Oct-17 00:00N 39°22' W 076°07'4 8.8
2017-Oct-16 23:30N 39°20' W 076°12'5 9.3
2017-Oct-16 23:00N 39°15' W 076°14'5 9.0
2017-Oct-16 22:30N 39°11' W 076°17'4 7.5
2017-Oct-16 21:58N 39°09' W 076°22'5 9.3
2017-Oct-16 21:29N 39°11' W 076°27'4 8.5
2017-Oct-16 20:58N 39°13' W 076°32'2 4.7
2017-Oct-16 20:30N 39°13' W 076°35'0 0.5
2017-Oct-16 20:00N 39°13' W 076°35'1 1.8
2017-Oct-16 19:30N 39°13' W 076°34'1 2.6
2017-Oct-16 19:00N 39°15' W 076°34'0 0.0
2017-Oct-16 18:30N 39°15' W 076°34'0 0.0
2017-Oct-16 18:00N 39°15' W 076°34'0 0.0
2017-Oct-16 17:30N 39°15' W 076°34'0 0.0
2017-Oct-16 17:00N 39°15' W 076°34'0 0.0
2017-Oct-16 16:30N 39°15' W 076°34'0 0.0
2017-Oct-16 16:00N 39°15' W 076°34'0 0.0
2017-Oct-16 15:30N 39°15' W 076°34'0 0.0
2017-Oct-16 15:00N 39°15' W 076°34'0 0.0
2017-Oct-16 14:00N 39°15' W 076°34'0 0.0
2017-Oct-16 13:30N 39°15' W 076°34'0 0.0
2017-Oct-16 13:00N 39°15' W 076°34'0 0.0
2017-Oct-16 12:30N 39°15' W 076°34'0 0.0
2017-Oct-16 12:00N 39°15' W 076°34'0 0.7
2017-Oct-16 11:31N 39°15' W 076°34'0 0.7
2017-Oct-16 11:01N 39°15' W 076°34'0 0.0
2017-Oct-16 10:30N 39°15' W 076°34'0 0.0
2017-Oct-16 10:00N 39°15' W 076°34'0 0.0
2017-Oct-16 09:30N 39°15' W 076°34'0 0.0
2017-Oct-16 09:00N 39°15' W 076°34'0 0.0
2017-Oct-16 08:30N 39°15' W 076°34'0 0.0
2017-Oct-16 08:00N 39°15' W 076°34'0 0.0
2017-Oct-16 07:30N 39°15' W 076°34'0 0.0
2017-Oct-16 07:00N 39°15' W 076°34'0 0.0
2017-Oct-16 06:30N 39°15' W 076°34'0 0.0
2017-Oct-16 06:00N 39°15' W 076°34'0 0.0
2017-Oct-16 05:30N 39°15' W 076°34'0 0.0
2017-Oct-16 05:00N 39°15' W 076°34'0 0.0
2017-Oct-16 04:30N 39°15' W 076°34'0 0.0
2017-Oct-16 04:00N 39°15' W 076°34'0 0.0
2017-Oct-16 03:30N 39°15' W 076°34'1 2.6
2017-Oct-16 02:59N 39°13' W 076°34'1 1.5
2017-Oct-16 02:30N 39°13' W 076°35'1 1.2
2017-Oct-16 02:00N 39°13' W 076°34'2 4.8
2017-Oct-16 01:30N 39°13' W 076°31'4 7.8
2017-Oct-16 01:00N 39°11' W 076°27'4 7.9
2017-Oct-16 00:30N 39°10' W 076°22'3 6.8
2017-Oct-16 00:00N 39°10' W 076°18'10 7.8
2017-Oct-15 22:47N 39°19' W 076°13'2 7.5
2017-Oct-15 22:31N 39°20' W 076°11'4 7.0
2017-Oct-15 22:00N 39°22' W 076°07'4 7.1
2017-Oct-15 21:30N 39°24' W 076°03'3 6.9
2017-Oct-15 21:01N 39°26' W 076°00'3 6.7
2017-Oct-15 20:30N 39°29' W 075°57'3 6.3
2017-Oct-15 20:00N 39°31' W 075°54'3 5.8
2017-Oct-15 19:30N 39°32' W 075°51'3 5.6
2017-Oct-15 19:01N 39°32' W 075°47'3 6.2
2017-Oct-15 18:30N 39°33' W 075°43'3 6.4
2017-Oct-15 18:01N 39°33' W 075°39'4 7.0
2017-Oct-15 17:30N 39°34' W 075°35'3 6.4
2017-Oct-15 17:01N 39°37' W 075°35'4 8.9
2017-Oct-15 16:31N 39°41' W 075°32'5 9.0
2017-Oct-15 16:01N 39°45' W 075°30'4 8.3
2017-Oct-15 15:30N 39°48' W 075°26'4 7.9
2017-Oct-15 15:01N 39°50' W 075°22'7 6.6
2017-Oct-15 14:01N 39°52' W 075°13'2 4.1
2017-Oct-15 13:31N 39°54' W 075°12'0 0.0
2017-Oct-15 13:00N 39°54' W 075°12'0 0.0
2017-Oct-15 12:30N 39°54' W 075°12'0 0.3
2017-Oct-15 12:01N 39°54' W 075°12'0 0.0
2017-Oct-15 11:31N 39°54' W 075°12'0 0.0
2017-Oct-15 11:01N 39°54' W 075°12'0 0.0
2017-Oct-15 10:31N 39°54' W 075°12'0 0.0
2017-Oct-15 10:01N 39°54' W 075°12'0 0.0
2017-Oct-15 09:31N 39°54' W 075°12'0 0.0
2017-Oct-15 09:00N 39°54' W 075°12'0 0.0
2017-Oct-15 08:31N 39°54' W 075°12'0 0.0
2017-Oct-15 08:01N 39°54' W 075°12'0 0.0
2017-Oct-15 07:31N 39°54' W 075°12'0 0.0
2017-Oct-15 07:01N 39°54' W 075°12'0 0.0
2017-Oct-15 06:31N 39°54' W 075°12'0 0.0
2017-Oct-15 06:01N 39°54' W 075°12'0 0.0
2017-Oct-15 05:31N 39°54' W 075°12'0 0.0
2017-Oct-15 05:01N 39°54' W 075°12'0 0.0
2017-Oct-15 04:30N 39°54' W 075°12'0 0.0
2017-Oct-15 04:01N 39°54' W 075°12'0 0.0
2017-Oct-15 03:31N 39°54' W 075°12'0 0.0
2017-Oct-15 03:01N 39°54' W 075°12'0 0.0
2017-Oct-15 02:30N 39°54' W 075°12'0 0.0
2017-Oct-15 02:00N 39°54' W 075°12'0 0.0
2017-Oct-15 01:30N 39°54' W 075°12'0 0.0
2017-Oct-15 01:01N 39°54' W 075°12'0 0.0
2017-Oct-15 00:31N 39°54' W 075°12'0 0.0
2017-Oct-15 00:01N 39°54' W 075°12'0 0.0
2017-Oct-14 23:31N 39°54' W 075°12'0 0.0
2017-Oct-14 23:01N 39°54' W 075°12'0 0.0
2017-Oct-14 22:31N 39°54' W 075°12'0 0.0
2017-Oct-14 22:01N 39°54' W 075°12'0 0.0
2017-Oct-14 21:31N 39°54' W 075°12'0 0.0
2017-Oct-14 21:01N 39°54' W 075°12'0 0.0
2017-Oct-14 20:31N 39°54' W 075°12'0 0.0
2017-Oct-14 20:01N 39°54' W 075°12'0 0.0
2017-Oct-14 19:31N 39°54' W 075°12'0 0.0
2017-Oct-14 19:01N 39°54' W 075°12'0 0.0
2017-Oct-14 18:31N 39°54' W 075°12'3 6.8
2017-Oct-14 18:01N 39°54' W 075°08'5 9.8
2017-Oct-14 17:30N 39°59' W 075°06'1 2.3
2017-Oct-14 17:01N 39°59' W 075°04'0 0.9
2017-Oct-14 16:30N 39°59' W 075°05'0 0.0
2017-Oct-14 16:00N 39°59' W 075°05'0 0.0
2017-Oct-14 15:31N 39°59' W 075°05'0 0.0
2017-Oct-14 15:01N 39°59' W 075°05'0 0.0
2017-Oct-14 14:31N 39°59' W 075°05'0 0.0
2017-Oct-14 14:00N 39°59' W 075°05'0 0.0
2017-Oct-14 13:31N 39°59' W 075°05'0 0.0
2017-Oct-14 13:00N 39°59' W 075°05'0 0.0
2017-Oct-14 12:30N 39°59' W 075°05'0 0.0
2017-Oct-14 12:01N 39°59' W 075°05'0 0.0
2017-Oct-14 11:30N 39°59' W 075°05'0 0.0
2017-Oct-14 11:00N 39°59' W 075°05'0 0.0
2017-Oct-14 10:31N 39°59' W 075°05'0 0.0
2017-Oct-14 10:01N 39°59' W 075°05'0 0.0
2017-Oct-14 09:30N 39°59' W 075°05'0 0.0
2017-Oct-14 09:00N 39°59' W 075°05'0 0.0
2017-Oct-14 08:30N 39°59' W 075°05'0 0.0
2017-Oct-14 08:01N 39°59' W 075°05'0 0.0
2017-Oct-14 07:31N 39°59' W 075°05'0 0.0
2017-Oct-14 07:00N 39°59' W 075°05'0 0.0
2017-Oct-14 06:30N 39°59' W 075°05'0 0.0
2017-Oct-14 06:00N 39°59' W 075°05'0 0.9
2017-Oct-14 05:31N 39°59' W 075°04'0 0.0
2017-Oct-14 05:00N 39°59' W 075°04'1 1.2
2017-Oct-14 04:30N 39°59' W 075°05'4 7.3
2017-Oct-14 04:00N 39°56' W 075°08'3 6.7
2017-Oct-14 03:31N 39°53' W 075°10'5 4.9
2017-Oct-14 02:31N 39°51' W 075°16'0 0.0
2017-Oct-14 02:31N 39°51' W 075°16'4 8.3
2017-Oct-14 02:01N 39°53' W 075°12'1 1.2
2017-Oct-14 01:28N 39°54' W 075°12'0 0.0
2017-Oct-14 01:01N 39°54' W 075°12'0 0.0
2017-Oct-14 00:30N 39°54' W 075°12'0 0.0
2017-Oct-14 00:00N 39°54' W 075°12'0 0.0
2017-Oct-13 23:30N 39°54' W 075°12'0 0.0
2017-Oct-13 23:00N 39°54' W 075°12'0 0.0
2017-Oct-13 22:30N 39°54' W 075°12'0 0.1
2017-Oct-13 22:00N 39°54' W 075°12'1 2.2
2017-Oct-13 21:30N 39°53' W 075°12'1 2.1
2017-Oct-13 21:01N 39°54' W 075°12'0 0.6
2017-Oct-13 20:30N 39°54' W 075°12'0 0.0
2017-Oct-13 20:01N 39°54' W 075°12'0 0.0
2017-Oct-13 19:31N 39°54' W 075°12'1 1.2
2017-Oct-13 19:01N 39°53' W 075°12'0 1.0
2017-Oct-13 18:31N 39°54' W 075°12'0 0.3
2017-Oct-13 18:00N 39°54' W 075°12'0 0.0
2017-Oct-13 17:30N 39°54' W 075°12'0 0.0
2017-Oct-13 17:01N 39°54' W 075°12'1 1.3
2017-Oct-13 16:31N 39°54' W 075°12'2 3.7
2017-Oct-13 16:01N 39°52' W 075°13'0 0.8
2017-Oct-13 15:30N 39°52' W 075°13'2 4.1
2017-Oct-13 15:00N 39°54' W 075°12'0 0.3
2017-Oct-13 14:30N 39°54' W 075°12'0 0.0
2017-Oct-13 14:00N 39°54' W 075°12'0 0.2
2017-Oct-13 13:30N 39°54' W 075°12'3 5.7
2017-Oct-13 13:00N 39°51' W 075°14'1 2.7
2017-Oct-13 12:30N 39°52' W 075°13'2 3.4
2017-Oct-13 12:00N 39°54' W 075°12'0 0.0
2017-Oct-13 11:30N 39°54' W 075°12'0 0.0
2017-Oct-13 11:00N 39°54' W 075°12'0 0.0
2017-Oct-13 10:30N 39°54' W 075°12'0 0.0
2017-Oct-13 10:00N 39°54' W 075°12'0 0.0
2017-Oct-13 09:30N 39°54' W 075°12'0 0.1
2017-Oct-13 09:01N 39°54' W 075°12'1 1.1
2017-Oct-13 08:31N 39°54' W 075°12'0 0.3
2017-Oct-13 08:00N 39°54' W 075°12'0 0.0
2017-Oct-13 07:30N 39°54' W 075°12'0 0.0
2017-Oct-13 07:01N 39°54' W 075°12'0 0.0
2017-Oct-13 06:30N 39°54' W 075°12'0 0.0
2017-Oct-13 06:00N 39°54' W 075°12'0 0.0
2017-Oct-13 05:31N 39°54' W 075°12'0 0.0
2017-Oct-13 05:00N 39°54' W 075°12'0 0.0
2017-Oct-13 04:30N 39°54' W 075°12'0 0.0
2017-Oct-13 04:01N 39°54' W 075°12'0 0.0
2017-Oct-13 03:30N 39°54' W 075°12'0 0.0
2017-Oct-13 03:00N 39°54' W 075°12'0 0.0
2017-Oct-13 02:31N 39°54' W 075°12'0 0.0
2017-Oct-13 02:00N 39°54' W 075°12'0 0.0
2017-Oct-13 01:30N 39°54' W 075°12'0 0.0
2017-Oct-13 01:00N 39°54' W 075°12'0 0.0
2017-Oct-13 00:30N 39°54' W 075°12'0 0.2
2017-Oct-13 00:01N 39°54' W 075°12'2 3.3
2017-Oct-12 23:30N 39°52' W 075°13'0 0.0
2017-Oct-12 23:00N 39°52' W 075°13'2 3.4
2017-Oct-12 22:30N 39°54' W 075°12'0 0.4
2017-Oct-12 22:00N 39°54' W 075°12'0 0.0
2017-Oct-12 21:30N 39°54' W 075°12'0 0.0
2017-Oct-12 21:00N 39°54' W 075°12'0 0.0
2017-Oct-12 20:30N 39°54' W 075°12'0 0.0
2017-Oct-12 20:01N 39°54' W 075°12'0 0.0
2017-Oct-12 19:30N 39°54' W 075°12'0 0.0
2017-Oct-12 19:00N 39°54' W 075°12'0 0.0
2017-Oct-12 18:30N 39°54' W 075°12'0 0.0
2017-Oct-12 18:01N 39°54' W 075°12'0 0.0
2017-Oct-12 17:31N 39°54' W 075°12'0 0.0
2017-Oct-12 17:00N 39°54' W 075°12'0 0.0
2017-Oct-12 16:31N 39°54' W 075°12'0 0.0
2017-Oct-12 16:00N 39°54' W 075°12'0 0.0
2017-Oct-12 15:30N 39°54' W 075°12'0 0.0
2017-Oct-12 15:00N 39°54' W 075°12'0 0.1
2017-Oct-12 14:30N 39°54' W 075°12'0 0.0
2017-Oct-12 14:01N 39°54' W 075°12'2 3.2
2017-Oct-12 13:30N 39°52' W 075°13'0 0.0
2017-Oct-12 13:00N 39°52' W 075°13'0 0.0
2017-Oct-12 12:30N 39°52' W 075°13'3 5.8
2017-Oct-12 12:00N 39°53' W 075°09'3 6.1
2017-Oct-12 11:30N 39°56' W 075°08'3 6.1
2017-Oct-12 11:00N 39°58' W 075°06'2 3.3
2017-Oct-12 10:30N 39°59' W 075°04'0 0.0
2017-Oct-12 10:00N 39°59' W 075°04'0 0.0
2017-Oct-12 09:30N 39°59' W 075°04'0 0.0
2017-Oct-12 09:00N 39°59' W 075°04'0 0.0
2017-Oct-12 08:30N 39°59' W 075°04'1 1.2
2017-Oct-12 08:00N 39°59' W 075°05'0 0.0
2017-Oct-12 07:30N 39°59' W 075°05'0 0.0
2017-Oct-12 07:00N 39°59' W 075°05'0 0.0
2017-Oct-12 06:30N 39°59' W 075°05'0 0.0
2017-Oct-12 06:00N 39°59' W 075°05'0 0.0
2017-Oct-12 05:30N 39°59' W 075°05'0 0.0
2017-Oct-12 05:00N 39°59' W 075°05'0 0.0
2017-Oct-12 04:30N 39°59' W 075°05'0 0.0
2017-Oct-12 04:00N 39°59' W 075°05'0 0.9
2017-Oct-12 03:30N 39°59' W 075°04'0 0.0
2017-Oct-12 03:00N 39°59' W 075°04'0 0.0
2017-Oct-12 02:30N 39°59' W 075°04'1 1.2
2017-Oct-12 02:00N 39°59' W 075°05'0 0.4
2017-Oct-12 01:31N 39°59' W 075°05'0 0.0
2017-Oct-12 01:01N 39°59' W 075°05'0 0.0
2017-Oct-12 00:31N 39°59' W 075°05'0 0.0
2017-Oct-12 00:01N 39°59' W 075°05'0 0.0
2017-Oct-11 23:30N 39°59' W 075°05'0 0.0
2017-Oct-11 23:01N 39°59' W 075°05'0 0.0
2017-Oct-11 22:30N 39°59' W 075°05'1 1.2
2017-Oct-11 22:01N 39°59' W 075°04'3 5.5
2017-Oct-11 21:31N 39°58' W 075°07'3 6.9
2017-Oct-11 21:00N 39°54' W 075°08'0 0.0
2017-Oct-11 20:31N 39°54' W 075°08'1 1.8
2017-Oct-11 20:01N 39°54' W 075°08'0 0.0
2017-Oct-11 19:30N 39°54' W 075°08'0 0.0
2017-Oct-11 19:00N 39°54' W 075°08'0 0.0
2017-Oct-11 18:30N 39°54' W 075°08'0 0.0
2017-Oct-11 18:00N 39°54' W 075°08'0 0.0
2017-Oct-11 17:30N 39°54' W 075°08'0 0.0
2017-Oct-11 17:00N 39°54' W 075°08'21 1.2
2017-Oct-11 00:01N 39°43' W 075°31'0 0.0
2017-Oct-10 23:30N 39°43' W 075°31'0 0.0
2017-Oct-10 23:00N 39°43' W 075°31'0 0.0
2017-Oct-10 22:30N 39°43' W 075°31'0 0.0
2017-Oct-10 22:00N 39°43' W 075°31'0 0.0
2017-Oct-10 21:30N 39°43' W 075°31'0 0.0
2017-Oct-10 21:00N 39°43' W 075°31'0 0.0
2017-Oct-10 20:30N 39°43' W 075°31'0 0.0
2017-Oct-10 20:00N 39°43' W 075°31'0 0.0
2017-Oct-10 19:30N 39°43' W 075°31'0 0.0
2017-Oct-10 19:00N 39°43' W 075°31'0 0.3
2017-Oct-10 18:30N 39°43' W 075°31'0 0.1
2017-Oct-10 18:00N 39°43' W 075°31'0 0.2
2017-Oct-10 17:30N 39°43' W 075°31'0 0.0
2017-Oct-10 17:01N 39°43' W 075°31'0 0.0
2017-Oct-10 16:31N 39°43' W 075°31'0 0.0
2017-Oct-10 16:00N 39°43' W 075°31'0 0.3
2017-Oct-10 15:31N 39°43' W 075°31'0 0.0
2017-Oct-10 15:00N 39°43' W 075°31'0 0.0
2017-Oct-10 14:01N 39°43' W 075°31'0 0.0
2017-Oct-10 13:30N 39°43' W 075°31'1 2.0
2017-Oct-10 13:00N 39°44' W 075°30'510.0
2017-Oct-10 12:31N 39°48' W 075°26'510.0
2017-Oct-10 12:01N 39°51' W 075°21'5 9.3
2017-Oct-10 11:31N 39°51' W 075°15'4 8.7
2017-Oct-10 11:00N 39°53' W 075°10'3 6.8
2017-Oct-10 10:30N 39°56' W 075°08'3 6.1
2017-Oct-10 10:01N 39°58' W 075°06'1 2.5
2017-Oct-10 09:31N 39°59' W 075°04'1 1.0
2017-Oct-10 09:01N 39°59' W 075°05'0 0.0
2017-Oct-10 08:31N 39°59' W 075°05'0 0.0
2017-Oct-10 08:00N 39°59' W 075°05'0 0.0
2017-Oct-10 07:30N 39°59' W 075°05'0 0.0
2017-Oct-10 07:01N 39°59' W 075°05'0 0.0
2017-Oct-10 06:31N 39°59' W 075°05'0 0.0
2017-Oct-10 06:01N 39°59' W 075°05'0 0.0
2017-Oct-10 05:30N 39°59' W 075°05'0 0.0
2017-Oct-10 05:01N 39°59' W 075°05'1 1.1
2017-Oct-10 04:31N 39°59' W 075°04'2 3.9
2017-Oct-10 04:00N 39°58' W 075°07'3 5.6
2017-Oct-10 03:30N 39°56' W 075°08'2 3.8
2017-Oct-10 03:01N 39°54' W 075°08'2 4.9
2017-Oct-10 02:31N 39°53' W 075°12'0 0.2
2017-Oct-10 02:00N 39°53' W 075°12'3 5.1
2017-Oct-10 01:30N 39°53' W 075°08'4 8.0
2017-Oct-10 01:01N 39°57' W 075°08'3 6.5
2017-Oct-10 00:31N 39°59' W 075°04'0 0.0
2017-Oct-10 00:01N 39°59' W 075°04'0 0.0
2017-Oct-09 23:31N 39°59' W 075°04'0 0.0
2017-Oct-09 23:00N 39°59' W 075°04'0 0.2
2017-Oct-09 22:31N 39°59' W 075°04'0 0.3
2017-Oct-09 22:01N 39°59' W 075°04'4 7.9
2017-Oct-09 21:30N 39°56' W 075°08'4 7.4
2017-Oct-09 21:00N 39°53' W 075°11'1 2.5
2017-Oct-09 20:30N 39°54' W 075°12'0 0.2
2017-Oct-09 20:00N 39°54' W 075°12'0 1.0
2017-Oct-09 19:31N 39°53' W 075°12'0 0.0
2017-Oct-09 19:01N 39°53' W 075°12'0 0.0
2017-Oct-09 18:31N 39°53' W 075°12'0 0.0
2017-Oct-09 18:01N 39°53' W 075°12'1 1.1
2017-Oct-09 17:31N 39°54' W 075°12'0 0.1
2017-Oct-09 17:00N 39°54' W 075°12'0 0.0
2017-Oct-09 16:30N 39°54' W 075°12'0 0.3
2017-Oct-09 16:01N 39°54' W 075°12'1 2.2
2017-Oct-09 15:31N 39°53' W 075°12'2 3.2
2017-Oct-09 15:01N 39°52' W 075°14'3 6.9
2017-Oct-09 14:30N 39°51' W 075°18'4 7.3
2017-Oct-09 14:00N 39°49' W 075°23'3 6.8
2017-Oct-09 13:30N 39°48' W 075°26'3 6.5
2017-Oct-09 13:00N 39°45' W 075°29'3 6.4
2017-Oct-09 12:30N 39°42' W 075°31'3 6.3
2017-Oct-09 12:00N 39°39' W 075°32'3 6.0
2017-Oct-09 11:30N 39°37' W 075°35'3 6.4
2017-Oct-09 11:00N 39°34' W 075°33'4 7.5
2017-Oct-09 10:31N 39°33' W 075°38'4 7.3
2017-Oct-09 10:00N 39°33' W 075°42'3 6.9
2017-Oct-09 09:31N 39°32' W 075°47'3 6.3
2017-Oct-09 09:00N 39°32' W 075°51'3 6.7
2017-Oct-09 08:30N 39°30' W 075°55'3 7.0
2017-Oct-09 08:01N 39°28' W 075°58'4 7.3
2017-Oct-09 07:30N 39°25' W 076°01'4 7.3
2017-Oct-09 07:00N 39°23' W 076°05'4 7.2
2017-Oct-09 06:31N 39°21' W 076°09'4 7.2
2017-Oct-09 06:00N 39°19' W 076°13'4 7.5
2017-Oct-09 05:30N 39°15' W 076°14'4 7.7
2017-Oct-09 05:00N 39°12' W 076°16'4 8.0
2017-Oct-09 04:29N 39°09' W 076°19'4 7.9
2017-Oct-09 04:00N 39°05' W 076°21'4 8.0
2017-Oct-09 03:30N 39°01' W 076°22'4 7.8
2017-Oct-09 03:00N 38°58' W 076°24'4 8.2
2017-Oct-09 02:30N 38°54' W 076°25'4 8.3
2017-Oct-09 01:59N 38°49' W 076°26'5 8.7
2017-Oct-09 01:27N 38°45' W 076°27'4 8.6
2017-Oct-09 00:57N 38°40' W 076°28'4 8.6
2017-Oct-09 00:27N 38°36' W 076°28'5 8.6
2017-Oct-08 23:55N 38°32' W 076°27'4 8.8
2017-Oct-08 23:29N 38°28' W 076°25'4 8.9
2017-Oct-08 23:00N 38°24' W 076°22'5 9.0
2017-Oct-08 22:26N 38°19' W 076°20'4 8.9
2017-Oct-08 21:58N 38°16' W 076°19'9 8.9
2017-Oct-08 20:54N 38°06' W 076°16'4 8.8
2017-Oct-08 20:27N 38°02' W 076°15'  
Track history (hours):
 
Tides and Currents Weather Stations Pressure Air Temp Water Temp Dewpoint Dewpoint Depression Visibility Wind Speed Wind Dir Waves Ship Positions

Fishing Creek

Owner: Vane Line Bunkering, Inc., Philadelphia, PA. More information available from US FCC via Universal Licensing System and Coast Guard Vessel Documentation Center.

Last reported at 2017-Oct-18 16:30 UTC. Time now 2017-Oct-18 16:41 UTC.
Position N 39°59' W 075°05'.

Length 31 m; draft 13 m.

Type: Tug. MMSI: 368173000.

Date/timePositionNaut miles runAvg speedWind from/ knotsBaromVisibWave heightAir tempDewpointWater temp
2017-Oct-18 16:30N 39°59' W 075°05'0 0.0
2017-Oct-18 16:00N 39°59' W 075°05'0 0.0
2017-Oct-18 15:30N 39°59' W 075°05'0 0.0
2017-Oct-18 15:00N 39°59' W 075°05'0 0.0
2017-Oct-18 14:01N 39°59' W 075°05'0 0.0
2017-Oct-18 13:30N 39°59' W 075°05'0 0.0
2017-Oct-18 13:01N 39°59' W 075°05'0 0.0
2017-Oct-18 12:31N 39°59' W 075°05'2 4.5
2017-Oct-18 12:00N 39°58' W 075°08'4 7.4
2017-Oct-18 11:31N 39°54' W 075°08'3 6.1
2017-Oct-18 11:00N 39°53' W 075°12'0 0.8
2017-Oct-18 10:31N 39°53' W 075°12'1 1.2
2017-Oct-18 10:00N 39°54' W 075°12'0 0.0
2017-Oct-18 09:31N 39°54' W 075°12'0 0.0
2017-Oct-18 09:00N 39°54' W 075°12'0 0.0
2017-Oct-18 08:30N 39°54' W 075°12'0 0.0
2017-Oct-18 08:01N 39°54' W 075°12'0 0.0
2017-Oct-18 07:30N 39°54' W 075°12'0 0.0
2017-Oct-18 07:01N 39°54' W 075°12'0 0.0
2017-Oct-18 06:30N 39°54' W 075°12'0 0.0
2017-Oct-18 06:01N 39°54' W 075°12'0 0.0
2017-Oct-18 05:30N 39°54' W 075°12'0 0.0
2017-Oct-18 05:01N 39°54' W 075°12'0 0.2
2017-Oct-18 04:31N 39°54' W 075°12'1 1.3
2017-Oct-18 04:00N 39°53' W 075°12'1 1.2
2017-Oct-18 03:31N 39°54' W 075°12'0 0.0
2017-Oct-18 03:00N 39°54' W 075°12'0 0.0
2017-Oct-18 02:30N 39°54' W 075°12'0 0.0
2017-Oct-18 02:00N 39°54' W 075°12'0 0.0
2017-Oct-18 01:30N 39°54' W 075°12'1 1.2
2017-Oct-18 01:00N 39°53' W 075°12'2 4.4
2017-Oct-18 00:30N 39°53' W 075°09'5 9.1
2017-Oct-18 00:00N 39°57' W 075°08'3 6.3
2017-Oct-17 23:30N 39°59' W 075°04'0 0.1
2017-Oct-17 23:00N 39°59' W 075°04'1 1.8
2017-Oct-17 22:31N 39°59' W 075°05'0 0.0
2017-Oct-17 22:01N 39°59' W 075°05'0 0.0
2017-Oct-17 21:30N 39°59' W 075°05'0 0.0
2017-Oct-17 21:00N 39°59' W 075°05'0 0.0
2017-Oct-17 20:31N 39°59' W 075°05'0 0.0
2017-Oct-17 20:01N 39°59' W 075°05'0 0.0
2017-Oct-17 19:31N 39°59' W 075°05'0 0.0
2017-Oct-17 19:01N 39°59' W 075°05'0 0.0
2017-Oct-17 18:30N 39°59' W 075°05'0 0.0
2017-Oct-17 18:00N 39°59' W 075°05'0 0.0
2017-Oct-17 17:31N 39°59' W 075°05'0 0.0
2017-Oct-17 17:01N 39°59' W 075°05'0 0.0
2017-Oct-17 16:30N 39°59' W 075°05'0 0.0
2017-Oct-17 16:00N 39°59' W 075°05'0 0.0
2017-Oct-17 15:31N 39°59' W 075°05'0 0.0
2017-Oct-17 15:00N 39°59' W 075°05'0 0.0
2017-Oct-17 14:31N 39°59' W 075°05'1 1.8
2017-Oct-17 14:00N 39°59' W 075°04'1 1.6
2017-Oct-17 13:30N 39°59' W 075°05'3 6.3
2017-Oct-17 13:00N 39°56' W 075°08'4 7.2
2017-Oct-17 12:31N 39°53' W 075°09'2 4.1
2017-Oct-17 12:00N 39°53' W 075°12'1 2.1
2017-Oct-17 11:31N 39°53' W 075°10'2 4.8
2017-Oct-17 11:00N 39°54' W 075°08'0 0.0
2017-Oct-17 10:30N 39°54' W 075°08'1 1.1
2017-Oct-17 10:01N 39°54' W 075°08'0 0.8
2017-Oct-17 09:31N 39°53' W 075°08'3 6.0
2017-Oct-17 09:00N 39°54' W 075°12'0 0.0
2017-Oct-17 08:30N 39°54' W 075°12'1 2.5
2017-Oct-17 08:01N 39°53' W 075°11'3 5.8
2017-Oct-17 07:31N 39°51' W 075°14'4 7.0
2017-Oct-17 07:01N 39°51' W 075°19'3 6.8
2017-Oct-17 06:31N 39°49' W 075°23'4 7.4
2017-Oct-17 06:00N 39°47' W 075°27'4 7.6
2017-Oct-17 05:31N 39°44' W 075°30'4 7.7
2017-Oct-17 05:01N 39°41' W 075°31'4 7.9
2017-Oct-17 04:30N 39°38' W 075°35'4 7.8
2017-Oct-17 04:00N 39°34' W 075°33'3 7.0
2017-Oct-17 03:30N 39°33' W 075°37'3 6.6
2017-Oct-17 03:00N 39°33' W 075°42'3 6.7
2017-Oct-17 02:30N 39°32' W 075°46'3 6.6
2017-Oct-17 02:00N 39°32' W 075°50'4 7.1
2017-Oct-17 01:30N 39°30' W 075°54'4 8.4
2017-Oct-17 01:01N 39°28' W 075°58'4 8.8
2017-Oct-17 00:30N 39°24' W 076°02'5 9.1
2017-Oct-17 00:00N 39°22' W 076°07'4 8.8
2017-Oct-16 23:30N 39°20' W 076°12'5 9.3
2017-Oct-16 23:00N 39°15' W 076°14'5 9.0
2017-Oct-16 22:30N 39°11' W 076°17'4 7.5
2017-Oct-16 21:58N 39°09' W 076°22'5 9.3
2017-Oct-16 21:29N 39°11' W 076°27'4 8.5
2017-Oct-16 20:58N 39°13' W 076°32'2 4.7
2017-Oct-16 20:30N 39°13' W 076°35'0 0.5
2017-Oct-16 20:00N 39°13' W 076°35'1 1.8
2017-Oct-16 19:30N 39°13' W 076°34'1 2.6
2017-Oct-16 19:00N 39°15' W 076°34'0 0.0
2017-Oct-16 18:30N 39°15' W 076°34'0 0.0
2017-Oct-16 18:00N 39°15' W 076°34'0 0.0
2017-Oct-16 17:30N 39°15' W 076°34'0 0.0
2017-Oct-16 17:00N 39°15' W 076°34'0 0.0
2017-Oct-16 16:30N 39°15' W 076°34'0 0.0
2017-Oct-16 16:00N 39°15' W 076°34'0 0.0
2017-Oct-16 15:30N 39°15' W 076°34'0 0.0
2017-Oct-16 15:00N 39°15' W 076°34'0 0.0
2017-Oct-16 14:00N 39°15' W 076°34'0 0.0
2017-Oct-16 13:30N 39°15' W 076°34'0 0.0
2017-Oct-16 13:00N 39°15' W 076°34'0 0.0
2017-Oct-16 12:30N 39°15' W 076°34'0 0.0
2017-Oct-16 12:00N 39°15' W 076°34'0 0.7
2017-Oct-16 11:31N 39°15' W 076°34'0 0.7
2017-Oct-16 11:01N 39°15' W 076°34'0 0.0
2017-Oct-16 10:30N 39°15' W 076°34'0 0.0
2017-Oct-16 10:00N 39°15' W 076°34'0 0.0
2017-Oct-16 09:30N 39°15' W 076°34'0 0.0
2017-Oct-16 09:00N 39°15' W 076°34'0 0.0
2017-Oct-16 08:30N 39°15' W 076°34'0 0.0
2017-Oct-16 08:00N 39°15' W 076°34'0 0.0
2017-Oct-16 07:30N 39°15' W 076°34'0 0.0
2017-Oct-16 07:00N 39°15' W 076°34'0 0.0
2017-Oct-16 06:30N 39°15' W 076°34'0 0.0
2017-Oct-16 06:00N 39°15' W 076°34'0 0.0
2017-Oct-16 05:30N 39°15' W 076°34'0 0.0
2017-Oct-16 05:00N 39°15' W 076°34'0 0.0
2017-Oct-16 04:30N 39°15' W 076°34'0 0.0
2017-Oct-16 04:00N 39°15' W 076°34'0 0.0
2017-Oct-16 03:30N 39°15' W 076°34'1 2.6
2017-Oct-16 02:59N 39°13' W 076°34'1 1.5
2017-Oct-16 02:30N 39°13' W 076°35'1 1.2
2017-Oct-16 02:00N 39°13' W 076°34'2 4.8
2017-Oct-16 01:30N 39°13' W 076°31'4 7.8
2017-Oct-16 01:00N 39°11' W 076°27'4 7.9
2017-Oct-16 00:30N 39°10' W 076°22'3 6.8
2017-Oct-16 00:00N 39°10' W 076°18'10 7.8
2017-Oct-15 22:47N 39°19' W 076°13'2 7.5
2017-Oct-15 22:31N 39°20' W 076°11'4 7.0
2017-Oct-15 22:00N 39°22' W 076°07'4 7.1
2017-Oct-15 21:30N 39°24' W 076°03'3 6.9
2017-Oct-15 21:01N 39°26' W 076°00'3 6.7
2017-Oct-15 20:30N 39°29' W 075°57'3 6.3
2017-Oct-15 20:00N 39°31' W 075°54'3 5.8
2017-Oct-15 19:30N 39°32' W 075°51'3 5.6
2017-Oct-15 19:01N 39°32' W 075°47'3 6.2
2017-Oct-15 18:30N 39°33' W 075°43'3 6.4
2017-Oct-15 18:01N 39°33' W 075°39'4 7.0
2017-Oct-15 17:30N 39°34' W 075°35'3 6.4
2017-Oct-15 17:01N 39°37' W 075°35'4 8.9
2017-Oct-15 16:31N 39°41' W 075°32'5 9.0
2017-Oct-15 16:01N 39°45' W 075°30'4 8.3
2017-Oct-15 15:30N 39°48' W 075°26'4 7.9
2017-Oct-15 15:01N 39°50' W 075°22'7 6.6
2017-Oct-15 14:01N 39°52' W 075°13'2 4.1
2017-Oct-15 13:31N 39°54' W 075°12'0 0.0
2017-Oct-15 13:00N 39°54' W 075°12'0 0.0
2017-Oct-15 12:30N 39°54' W 075°12'0 0.3
2017-Oct-15 12:01N 39°54' W 075°12'0 0.0
2017-Oct-15 11:31N 39°54' W 075°12'0 0.0
2017-Oct-15 11:01N 39°54' W 075°12'0 0.0
2017-Oct-15 10:31N 39°54' W 075°12'0 0.0
2017-Oct-15 10:01N 39°54' W 075°12'0 0.0
2017-Oct-15 09:31N 39°54' W 075°12'0 0.0
2017-Oct-15 09:00N 39°54' W 075°12'0 0.0
2017-Oct-15 08:31N 39°54' W 075°12'0 0.0
2017-Oct-15 08:01N 39°54' W 075°12'0 0.0
2017-Oct-15 07:31N 39°54' W 075°12'0 0.0
2017-Oct-15 07:01N 39°54' W 075°12'0 0.0
2017-Oct-15 06:31N 39°54' W 075°12'0 0.0
2017-Oct-15 06:01N 39°54' W 075°12'0 0.0
2017-Oct-15 05:31N 39°54' W 075°12'0 0.0
2017-Oct-15 05:01N 39°54' W 075°12'0 0.0
2017-Oct-15 04:30N 39°54' W 075°12'0 0.0
2017-Oct-15 04:01N 39°54' W 075°12'0 0.0
2017-Oct-15 03:31N 39°54' W 075°12'0 0.0
2017-Oct-15 03:01N 39°54' W 075°12'0 0.0
2017-Oct-15 02:30N 39°54' W 075°12'0 0.0
2017-Oct-15 02:00N 39°54' W 075°12'0 0.0
2017-Oct-15 01:30N 39°54' W 075°12'0 0.0
2017-Oct-15 01:01N 39°54' W 075°12'0 0.0
2017-Oct-15 00:31N 39°54' W 075°12'0 0.0
2017-Oct-15 00:01N 39°54' W 075°12'0 0.0
2017-Oct-14 23:31N 39°54' W 075°12'0 0.0
2017-Oct-14 23:01N 39°54' W 075°12'0 0.0
2017-Oct-14 22:31N 39°54' W 075°12'0 0.0
2017-Oct-14 22:01N 39°54' W 075°12'0 0.0
2017-Oct-14 21:31N 39°54' W 075°12'0 0.0
2017-Oct-14 21:01N 39°54' W 075°12'0 0.0
2017-Oct-14 20:31N 39°54' W 075°12'0 0.0
2017-Oct-14 20:01N 39°54' W 075°12'0 0.0
2017-Oct-14 19:31N 39°54' W 075°12'0 0.0
2017-Oct-14 19:01N 39°54' W 075°12'0 0.0
2017-Oct-14 18:31N 39°54' W 075°12'3 6.8
2017-Oct-14 18:01N 39°54' W 075°08'5 9.8
2017-Oct-14 17:30N 39°59' W 075°06'1 2.3
2017-Oct-14 17:01N 39°59' W 075°04'0 0.9
2017-Oct-14 16:30N 39°59' W 075°05'0 0.0
2017-Oct-14 16:00N 39°59' W 075°05'0 0.0
2017-Oct-14 15:31N 39°59' W 075°05'0 0.0
2017-Oct-14 15:01N 39°59' W 075°05'0 0.0
2017-Oct-14 14:31N 39°59' W 075°05'0 0.0
2017-Oct-14 14:00N 39°59' W 075°05'0 0.0
2017-Oct-14 13:31N 39°59' W 075°05'0 0.0
2017-Oct-14 13:00N 39°59' W 075°05'0 0.0
2017-Oct-14 12:30N 39°59' W 075°05'0 0.0
2017-Oct-14 12:01N 39°59' W 075°05'0 0.0
2017-Oct-14 11:30N 39°59' W 075°05'0 0.0
2017-Oct-14 11:00N 39°59' W 075°05'0 0.0
2017-Oct-14 10:31N 39°59' W 075°05'0 0.0
2017-Oct-14 10:01N 39°59' W 075°05'0 0.0
2017-Oct-14 09:30N 39°59' W 075°05'0 0.0
2017-Oct-14 09:00N 39°59' W 075°05'0 0.0
2017-Oct-14 08:30N 39°59' W 075°05'0 0.0
2017-Oct-14 08:01N 39°59' W 075°05'0 0.0
2017-Oct-14 07:31N 39°59' W 075°05'0 0.0
2017-Oct-14 07:00N 39°59' W 075°05'0 0.0
2017-Oct-14 06:30N 39°59' W 075°05'0 0.0
2017-Oct-14 06:00N 39°59' W 075°05'0 0.9
2017-Oct-14 05:31N 39°59' W 075°04'0 0.0
2017-Oct-14 05:00N 39°59' W 075°04'1 1.2
2017-Oct-14 04:30N 39°59' W 075°05'4 7.3
2017-Oct-14 04:00N 39°56' W 075°08'3 6.7
2017-Oct-14 03:31N 39°53' W 075°10'5 4.9
2017-Oct-14 02:31N 39°51' W 075°16'0 0.0
2017-Oct-14 02:31N 39°51' W 075°16'4 8.3
2017-Oct-14 02:01N 39°53' W 075°12'1 1.2
2017-Oct-14 01:28N 39°54' W 075°12'0 0.0
2017-Oct-14 01:01N 39°54' W 075°12'0 0.0
2017-Oct-14 00:30N 39°54' W 075°12'0 0.0
2017-Oct-14 00:00N 39°54' W 075°12'0 0.0
2017-Oct-13 23:30N 39°54' W 075°12'0 0.0
2017-Oct-13 23:00N 39°54' W 075°12'0 0.0
2017-Oct-13 22:30N 39°54' W 075°12'0 0.1
2017-Oct-13 22:00N 39°54' W 075°12'1 2.2
2017-Oct-13 21:30N 39°53' W 075°12'1 2.1
2017-Oct-13 21:01N 39°54' W 075°12'0 0.6
2017-Oct-13 20:30N 39°54' W 075°12'0 0.0
2017-Oct-13 20:01N 39°54' W 075°12'0 0.0
2017-Oct-13 19:31N 39°54' W 075°12'1 1.2
2017-Oct-13 19:01N 39°53' W 075°12'0 1.0
2017-Oct-13 18:31N 39°54' W 075°12'0 0.3
2017-Oct-13 18:00N 39°54' W 075°12'0 0.0
2017-Oct-13 17:30N 39°54' W 075°12'0 0.0
2017-Oct-13 17:01N 39°54' W 075°12'1 1.3
2017-Oct-13 16:31N 39°54' W 075°12'2 3.7
2017-Oct-13 16:01N 39°52' W 075°13'0 0.8
2017-Oct-13 15:30N 39°52' W 075°13'2 4.1
2017-Oct-13 15:00N 39°54' W 075°12'0 0.3
2017-Oct-13 14:30N 39°54' W 075°12'0 0.0
2017-Oct-13 14:00N 39°54' W 075°12'0 0.2
2017-Oct-13 13:30N 39°54' W 075°12'3 5.7
2017-Oct-13 13:00N 39°51' W 075°14'1 2.7
2017-Oct-13 12:30N 39°52' W 075°13'2 3.4
2017-Oct-13 12:00N 39°54' W 075°12'0 0.0
2017-Oct-13 11:30N 39°54' W 075°12'0 0.0
2017-Oct-13 11:00N 39°54' W 075°12'0 0.0
2017-Oct-13 10:30N 39°54' W 075°12'0 0.0
2017-Oct-13 10:00N 39°54' W 075°12'0 0.0
2017-Oct-13 09:30N 39°54' W 075°12'0 0.1
2017-Oct-13 09:01N 39°54' W 075°12'1 1.1
2017-Oct-13 08:31N 39°54' W 075°12'0 0.3
2017-Oct-13 08:00N 39°54' W 075°12'0 0.0
2017-Oct-13 07:30N 39°54' W 075°12'0 0.0
2017-Oct-13 07:01N 39°54' W 075°12'0 0.0
2017-Oct-13 06:30N 39°54' W 075°12'0 0.0
2017-Oct-13 06:00N 39°54' W 075°12'0 0.0
2017-Oct-13 05:31N 39°54' W 075°12'0 0.0
2017-Oct-13 05:00N 39°54' W 075°12'0 0.0
2017-Oct-13 04:30N 39°54' W 075°12'0 0.0
2017-Oct-13 04:01N 39°54' W 075°12'0 0.0
2017-Oct-13 03:30N 39°54' W 075°12'0 0.0
2017-Oct-13 03:00N 39°54' W 075°12'0 0.0
2017-Oct-13 02:31N 39°54' W 075°12'0 0.0
2017-Oct-13 02:00N 39°54' W 075°12'0 0.0
2017-Oct-13 01:30N 39°54' W 075°12'0 0.0
2017-Oct-13 01:00N 39°54' W 075°12'0 0.0
2017-Oct-13 00:30N 39°54' W 075°12'0 0.2
2017-Oct-13 00:01N 39°54' W 075°12'2 3.3
2017-Oct-12 23:30N 39°52' W 075°13'0 0.0
2017-Oct-12 23:00N 39°52' W 075°13'2 3.4
2017-Oct-12 22:30N 39°54' W 075°12'0 0.4
2017-Oct-12 22:00N 39°54' W 075°12'0 0.0
2017-Oct-12 21:30N 39°54' W 075°12'0 0.0
2017-Oct-12 21:00N 39°54' W 075°12'0 0.0
2017-Oct-12 20:30N 39°54' W 075°12'0 0.0
2017-Oct-12 20:01N 39°54' W 075°12'0 0.0
2017-Oct-12 19:30N 39°54' W 075°12'0 0.0
2017-Oct-12 19:00N 39°54' W 075°12'0 0.0
2017-Oct-12 18:30N 39°54' W 075°12'0 0.0
2017-Oct-12 18:01N 39°54' W 075°12'0 0.0
2017-Oct-12 17:31N 39°54' W 075°12'0 0.0
2017-Oct-12 17:00N 39°54' W 075°12'0 0.0
2017-Oct-12 16:31N 39°54' W 075°12'0 0.0
2017-Oct-12 16:00N 39°54' W 075°12'0 0.0
2017-Oct-12 15:30N 39°54' W 075°12'0 0.0
2017-Oct-12 15:00N 39°54' W 075°12'0 0.1
2017-Oct-12 14:30N 39°54' W 075°12'0 0.0
2017-Oct-12 14:01N 39°54' W 075°12'2 3.2
2017-Oct-12 13:30N 39°52' W 075°13'0 0.0
2017-Oct-12 13:00N 39°52' W 075°13'0 0.0
2017-Oct-12 12:30N 39°52' W 075°13'3 5.8
2017-Oct-12 12:00N 39°53' W 075°09'3 6.1
2017-Oct-12 11:30N 39°56' W 075°08'3 6.1
2017-Oct-12 11:00N 39°58' W 075°06'2 3.3
2017-Oct-12 10:30N 39°59' W 075°04'0 0.0
2017-Oct-12 10:00N 39°59' W 075°04'0 0.0
2017-Oct-12 09:30N 39°59' W 075°04'0 0.0
2017-Oct-12 09:00N 39°59' W 075°04'0 0.0
2017-Oct-12 08:30N 39°59' W 075°04'1 1.2
2017-Oct-12 08:00N 39°59' W 075°05'0 0.0
2017-Oct-12 07:30N 39°59' W 075°05'0 0.0
2017-Oct-12 07:00N 39°59' W 075°05'0 0.0
2017-Oct-12 06:30N 39°59' W 075°05'0 0.0
2017-Oct-12 06:00N 39°59' W 075°05'0 0.0
2017-Oct-12 05:30N 39°59' W 075°05'0 0.0
2017-Oct-12 05:00N 39°59' W 075°05'0 0.0
2017-Oct-12 04:30N 39°59' W 075°05'0 0.0
2017-Oct-12 04:00N 39°59' W 075°05'0 0.9
2017-Oct-12 03:30N 39°59' W 075°04'0 0.0
2017-Oct-12 03:00N 39°59' W 075°04'0 0.0
2017-Oct-12 02:30N 39°59' W 075°04'1 1.2
2017-Oct-12 02:00N 39°59' W 075°05'0 0.4
2017-Oct-12 01:31N 39°59' W 075°05'0 0.0
2017-Oct-12 01:01N 39°59' W 075°05'0 0.0
2017-Oct-12 00:31N 39°59' W 075°05'0 0.0
2017-Oct-12 00:01N 39°59' W 075°05'0 0.0
2017-Oct-11 23:30N 39°59' W 075°05'0 0.0
2017-Oct-11 23:01N 39°59' W 075°05'0 0.0
2017-Oct-11 22:30N 39°59' W 075°05'1 1.2
2017-Oct-11 22:01N 39°59' W 075°04'3 5.5
2017-Oct-11 21:31N 39°58' W 075°07'3 6.9
2017-Oct-11 21:00N 39°54' W 075°08'0 0.0
2017-Oct-11 20:31N 39°54' W 075°08'1 1.8
2017-Oct-11 20:01N 39°54' W 075°08'0 0.0
2017-Oct-11 19:30N 39°54' W 075°08'0 0.0
2017-Oct-11 19:00N 39°54' W 075°08'0 0.0
2017-Oct-11 18:30N 39°54' W 075°08'0 0.0
2017-Oct-11 18:00N 39°54' W 075°08'0 0.0
2017-Oct-11 17:30N 39°54' W 075°08'0 0.0
2017-Oct-11 17:00N 39°54' W 075°08'21 1.2
2017-Oct-11 00:01N 39°43' W 075°31'0 0.0
2017-Oct-10 23:30N 39°43' W 075°31'0 0.0
2017-Oct-10 23:00N 39°43' W 075°31'0 0.0
2017-Oct-10 22:30N 39°43' W 075°31'0 0.0
2017-Oct-10 22:00N 39°43' W 075°31'0 0.0
2017-Oct-10 21:30N 39°43' W 075°31'0 0.0
2017-Oct-10 21:00N 39°43' W 075°31'0 0.0
2017-Oct-10 20:30N 39°43' W 075°31'0 0.0
2017-Oct-10 20:00N 39°43' W 075°31'0 0.0
2017-Oct-10 19:30N 39°43' W 075°31'0 0.0
2017-Oct-10 19:00N 39°43' W 075°31'0 0.3
2017-Oct-10 18:30N 39°43' W 075°31'0 0.1
2017-Oct-10 18:00N 39°43' W 075°31'0 0.2
2017-Oct-10 17:30N 39°43' W 075°31'0 0.0
2017-Oct-10 17:01N 39°43' W 075°31'0 0.0
2017-Oct-10 16:31N 39°43' W 075°31'0 0.0
2017-Oct-10 16:00N 39°43' W 075°31'0 0.3
2017-Oct-10 15:31N 39°43' W 075°31'0 0.0
2017-Oct-10 15:00N 39°43' W 075°31'0 0.0
2017-Oct-10 14:01N 39°43' W 075°31'0 0.0
2017-Oct-10 13:30N 39°43' W 075°31'1 2.0
2017-Oct-10 13:00N 39°44' W 075°30'510.0
2017-Oct-10 12:31N 39°48' W 075°26'510.0
2017-Oct-10 12:01N 39°51' W 075°21'5 9.3
2017-Oct-10 11:31N 39°51' W 075°15'4 8.7
2017-Oct-10 11:00N 39°53' W 075°10'3 6.8
2017-Oct-10 10:30N 39°56' W 075°08'3 6.1
2017-Oct-10 10:01N 39°58' W 075°06'1 2.5
2017-Oct-10 09:31N 39°59' W 075°04'1 1.0
2017-Oct-10 09:01N 39°59' W 075°05'0 0.0
2017-Oct-10 08:31N 39°59' W 075°05'0 0.0
2017-Oct-10 08:00N 39°59' W 075°05'0 0.0
2017-Oct-10 07:30N 39°59' W 075°05'0 0.0
2017-Oct-10 07:01N 39°59' W 075°05'0 0.0
2017-Oct-10 06:31N 39°59' W 075°05'0 0.0
2017-Oct-10 06:01N 39°59' W 075°05'0 0.0
2017-Oct-10 05:30N 39°59' W 075°05'0 0.0
2017-Oct-10 05:01N 39°59' W 075°05'1 1.1
2017-Oct-10 04:31N 39°59' W 075°04'2 3.9
2017-Oct-10 04:00N 39°58' W 075°07'3 5.6
2017-Oct-10 03:30N 39°56' W 075°08'2 3.8
2017-Oct-10 03:01N 39°54' W 075°08'2 4.9
2017-Oct-10 02:31N 39°53' W 075°12'0 0.2
2017-Oct-10 02:00N 39°53' W 075°12'3 5.1
2017-Oct-10 01:30N 39°53' W 075°08'4 8.0
2017-Oct-10 01:01N 39°57' W 075°08'3 6.5
2017-Oct-10 00:31N 39°59' W 075°04'0 0.0
2017-Oct-10 00:01N 39°59' W 075°04'0 0.0
2017-Oct-09 23:31N 39°59' W 075°04'0 0.0
2017-Oct-09 23:00N 39°59' W 075°04'0 0.2
2017-Oct-09 22:31N 39°59' W 075°04'0 0.3
2017-Oct-09 22:01N 39°59' W 075°04'4 7.9
2017-Oct-09 21:30N 39°56' W 075°08'4 7.4
2017-Oct-09 21:00N 39°53' W 075°11'1 2.5
2017-Oct-09 20:30N 39°54' W 075°12'0 0.2
2017-Oct-09 20:00N 39°54' W 075°12'0 1.0
2017-Oct-09 19:31N 39°53' W 075°12'0 0.0
2017-Oct-09 19:01N 39°53' W 075°12'0 0.0
2017-Oct-09 18:31N 39°53' W 075°12'0 0.0
2017-Oct-09 18:01N 39°53' W 075°12'1 1.1
2017-Oct-09 17:31N 39°54' W 075°12'0 0.1
2017-Oct-09 17:00N 39°54' W 075°12'0 0.0
2017-Oct-09 16:30N 39°54' W 075°12'0 0.3
2017-Oct-09 16:01N 39°54' W 075°12'1 2.2
2017-Oct-09 15:31N 39°53' W 075°12'2 3.2
2017-Oct-09 15:01N 39°52' W 075°14'3 6.9
2017-Oct-09 14:30N 39°51' W 075°18'4 7.3
2017-Oct-09 14:00N 39°49' W 075°23'3 6.8
2017-Oct-09 13:30N 39°48' W 075°26'3 6.5
2017-Oct-09 13:00N 39°45' W 075°29'3 6.4
2017-Oct-09 12:30N 39°42' W 075°31'3 6.3
2017-Oct-09 12:00N 39°39' W 075°32'3 6.0
2017-Oct-09 11:30N 39°37' W 075°35'3 6.4
2017-Oct-09 11:00N 39°34' W 075°33'4 7.5
2017-Oct-09 10:31N 39°33' W 075°38'4 7.3
2017-Oct-09 10:00N 39°33' W 075°42'3 6.9
2017-Oct-09 09:31N 39°32' W 075°47'3 6.3
2017-Oct-09 09:00N 39°32' W 075°51'3 6.7
2017-Oct-09 08:30N 39°30' W 075°55'3 7.0
2017-Oct-09 08:01N 39°28' W 075°58'4 7.3
2017-Oct-09 07:30N 39°25' W 076°01'4 7.3
2017-Oct-09 07:00N 39°23' W 076°05'4 7.2
2017-Oct-09 06:31N 39°21' W 076°09'4 7.2
2017-Oct-09 06:00N 39°19' W 076°13'4 7.5
2017-Oct-09 05:30N 39°15' W 076°14'4 7.7
2017-Oct-09 05:00N 39°12' W 076°16'4 8.0
2017-Oct-09 04:29N 39°09' W 076°19'4 7.9
2017-Oct-09 04:00N 39°05' W 076°21'4 8.0
2017-Oct-09 03:30N 39°01' W 076°22'4 7.8
2017-Oct-09 03:00N 38°58' W 076°24'4 8.2
2017-Oct-09 02:30N 38°54' W 076°25'4 8.3
2017-Oct-09 01:59N 38°49' W 076°26'5 8.7
2017-Oct-09 01:27N 38°45' W 076°27'4 8.6
2017-Oct-09 00:57N 38°40' W 076°28'4 8.6
2017-Oct-09 00:27N 38°36' W 076°28'5 8.6
2017-Oct-08 23:55N 38°32' W 076°27'4 8.8
2017-Oct-08 23:29N 38°28' W 076°25'4 8.9
2017-Oct-08 23:00N 38°24' W 076°22'5 9.0
2017-Oct-08 22:26N 38°19' W 076°20'4 8.9
2017-Oct-08 21:58N 38°16' W 076°19'9 8.9
2017-Oct-08 20:54N 38°06' W 076°16'4 8.8
2017-Oct-08 20:27N 38°02' W 076°15'  

Dump ship's entire track history